sensor_id;sensor_type;location;lat;lon;timestamp;pressure;altitude;pressure_sealevel;temperature;humidity
60371;BME280;48550;40.588;49.684;2023-12-14T00:00:29;101909.44;;;5.54;84.05
60371;BME280;48550;40.588;49.684;2023-12-14T00:02:56;101912.38;;;5.44;83.71
60371;BME280;48550;40.588;49.684;2023-12-14T00:05:21;101906.88;;;5.52;83.02
60371;BME280;48550;40.588;49.684;2023-12-14T00:07:47;101902.06;;;5.40;84.29
60371;BME280;48550;40.588;49.684;2023-12-14T00:10:13;101916.09;;;5.14;86.03
60371;BME280;48550;40.588;49.684;2023-12-14T00:12:39;101883.78;;;5.15;84.32
60371;BME280;48550;40.588;49.684;2023-12-14T00:15:05;101902.34;;;5.32;82.77
60371;BME280;48550;40.588;49.684;2023-12-14T00:17:31;101902.69;;;5.23;83.55
60371;BME280;48550;40.588;49.684;2023-12-14T00:19:57;101905.19;;;5.26;82.56
60371;BME280;48550;40.588;49.684;2023-12-14T00:22:23;101901.56;;;5.54;82.63
60371;BME280;48550;40.588;49.684;2023-12-14T00:24:48;101890.88;;;5.60;80.46
60371;BME280;48550;40.588;49.684;2023-12-14T00:27:14;101896.09;;;5.60;80.13
60371;BME280;48550;40.588;49.684;2023-12-14T00:29:40;101898.13;;;5.52;80.75
60371;BME280;48550;40.588;49.684;2023-12-14T00:32:06;101893.19;;;5.44;80.98
60371;BME280;48550;40.588;49.684;2023-12-14T00:34:32;101884.03;;;5.56;80.32
60371;BME280;48550;40.588;49.684;2023-12-14T00:36:57;101880.06;;;5.68;80.50
60371;BME280;48550;40.588;49.684;2023-12-14T00:39:23;101880.38;;;5.60;81.08
60371;BME280;48550;40.588;49.684;2023-12-14T00:41:49;101883.50;;;5.70;80.71
60371;BME280;48550;40.588;49.684;2023-12-14T00:44:14;101879.28;;;5.66;80.27
60371;BME280;48550;40.588;49.684;2023-12-14T00:46:40;101882.63;;;5.69;80.63
60371;BME280;48550;40.588;49.684;2023-12-14T00:49:07;101883.66;;;5.65;79.98
60371;BME280;48550;40.588;49.684;2023-12-14T00:51:33;101876.59;;;5.67;80.15
60371;BME280;48550;40.588;49.684;2023-12-14T00:53:59;101882.63;;;5.69;80.06
60371;BME280;48550;40.588;49.684;2023-12-14T00:56:24;101880.88;;;5.70;79.80
60371;BME280;48550;40.588;49.684;2023-12-14T00:58:50;101883.19;;;5.77;80.05
60371;BME280;48550;40.588;49.684;2023-12-14T01:01:16;101887.34;;;5.83;78.98
60371;BME280;48550;40.588;49.684;2023-12-14T01:03:41;101877.97;;;5.77;78.98
60371;BME280;48550;40.588;49.684;2023-12-14T01:06:07;101886.13;;;5.70;79.10
60371;BME280;48550;40.588;49.684;2023-12-14T01:08:33;101886.22;;;5.67;79.33
60371;BME280;48550;40.588;49.684;2023-12-14T01:10:59;101880.75;;;5.73;79.51
60371;BME280;48550;40.588;49.684;2023-12-14T01:13:24;101886.00;;;5.73;79.67
60371;BME280;48550;40.588;49.684;2023-12-14T01:15:50;101883.31;;;5.74;79.18
60371;BME280;48550;40.588;49.684;2023-12-14T01:18:16;101888.69;;;5.71;79.44
60371;BME280;48550;40.588;49.684;2023-12-14T01:20:42;101889.16;;;5.81;79.14
60371;BME280;48550;40.588;49.684;2023-12-14T01:23:08;101890.44;;;5.71;78.77
60371;BME280;48550;40.588;49.684;2023-12-14T01:25:35;101899.84;;;5.76;79.45
60371;BME280;48550;40.588;49.684;2023-12-14T01:28:01;101899.66;;;5.81;78.99
60371;BME280;48550;40.588;49.684;2023-12-14T01:30:27;101905.75;;;5.81;77.88
60371;BME280;48550;40.588;49.684;2023-12-14T01:32:53;101913.25;;;5.91;79.52
60371;BME280;48550;40.588;49.684;2023-12-14T01:35:18;101921.69;;;5.99;78.36
60371;BME280;48550;40.588;49.684;2023-12-14T01:37:44;101917.13;;;5.80;78.49
60371;BME280;48550;40.588;49.684;2023-12-14T01:40:10;101926.09;;;5.75;78.91
60371;BME280;48550;40.588;49.684;2023-12-14T01:42:36;101919.81;;;5.79;77.90
60371;BME280;48550;40.588;49.684;2023-12-14T01:45:02;101917.28;;;5.77;79.62
60371;BME280;48550;40.588;49.684;2023-12-14T01:47:28;101912.47;;;5.89;78.67
60371;BME280;48550;40.588;49.684;2023-12-14T01:49:54;101928.25;;;5.87;78.66
60371;BME280;48550;40.588;49.684;2023-12-14T01:52:19;101923.91;;;5.86;78.59
60371;BME280;48550;40.588;49.684;2023-12-14T01:54:45;101919.34;;;5.91;78.38
60371;BME280;48550;40.588;49.684;2023-12-14T01:57:11;101930.34;;;6.01;78.40
60371;BME280;48550;40.588;49.684;2023-12-14T01:59:37;101922.19;;;5.85;78.95
60371;BME280;48550;40.588;49.684;2023-12-14T02:02:02;101930.94;;;5.86;79.61
60371;BME280;48550;40.588;49.684;2023-12-14T02:04:31;101944.16;;;5.82;78.92
60371;BME280;48550;40.588;49.684;2023-12-14T02:06:57;101934.88;;;5.96;78.84
60371;BME280;48550;40.588;49.684;2023-12-14T02:09:22;101927.91;;;5.96;78.31
60371;BME280;48550;40.588;49.684;2023-12-14T02:11:48;101932.19;;;5.99;78.79
60371;BME280;48550;40.588;49.684;2023-12-14T02:14:14;101938.56;;;5.92;78.72
60371;BME280;48550;40.588;49.684;2023-12-14T02:16:39;101927.09;;;5.94;78.60
60371;BME280;48550;40.588;49.684;2023-12-14T02:19:05;101938.31;;;5.98;78.82
60371;BME280;48550;40.588;49.684;2023-12-14T02:21:31;101929.88;;;5.90;78.29
60371;BME280;48550;40.588;49.684;2023-12-14T02:23:57;101936.53;;;6.00;78.26
60371;BME280;48550;40.588;49.684;2023-12-14T02:26:23;101938.25;;;5.99;78.16
60371;BME280;48550;40.588;49.684;2023-12-14T02:28:48;101935.66;;;5.99;77.86
60371;BME280;48550;40.588;49.684;2023-12-14T02:31:15;101937.78;;;6.12;76.71
60371;BME280;48550;40.588;49.684;2023-12-14T02:33:40;101938.97;;;6.05;77.05
60371;BME280;48550;40.588;49.684;2023-12-14T02:36:06;101946.19;;;5.98;77.89
60371;BME280;48550;40.588;49.684;2023-12-14T02:38:32;101941.66;;;6.03;77.99
60371;BME280;48550;40.588;49.684;2023-12-14T02:40:58;101947.72;;;6.04;77.86
60371;BME280;48550;40.588;49.684;2023-12-14T02:43:24;101938.25;;;5.99;78.34
60371;BME280;48550;40.588;49.684;2023-12-14T02:45:50;101956.69;;;6.20;76.82
60371;BME280;48550;40.588;49.684;2023-12-14T02:48:15;101959.94;;;6.05;77.94
60371;BME280;48550;40.588;49.684;2023-12-14T02:50:41;101950.72;;;5.93;77.33
60371;BME280;48550;40.588;49.684;2023-12-14T02:53:07;101952.31;;;5.98;78.54
60371;BME280;48550;40.588;49.684;2023-12-14T02:55:33;101964.44;;;6.01;77.81
60371;BME280;48550;40.588;49.684;2023-12-14T02:57:58;101967.47;;;6.12;76.94
60371;BME280;48550;40.588;49.684;2023-12-14T03:00:24;101959.81;;;6.08;78.18
60371;BME280;48550;40.588;49.684;2023-12-14T03:02:50;101954.47;;;6.11;77.04
60371;BME280;48550;40.588;49.684;2023-12-14T03:05:16;101972.50;;;5.95;77.50
60371;BME280;48550;40.588;49.684;2023-12-14T03:07:41;101969.72;;;5.99;77.31
60371;BME280;48550;40.588;49.684;2023-12-14T03:10:07;101983.72;;;6.00;77.29
60371;BME280;48550;40.588;49.684;2023-12-14T03:12:33;101990.19;;;6.13;77.39
60371;BME280;48550;40.588;49.684;2023-12-14T03:14:59;101991.59;;;6.22;76.24
60371;BME280;48550;40.588;49.684;2023-12-14T03:17:25;101993.97;;;6.06;77.09
60371;BME280;48550;40.588;49.684;2023-12-14T03:19:50;101995.53;;;6.10;77.08
60371;BME280;48550;40.588;49.684;2023-12-14T03:22:16;102007.13;;;6.05;77.24
60371;BME280;48550;40.588;49.684;2023-12-14T03:24:42;101993.97;;;6.06;77.36
60371;BME280;48550;40.588;49.684;2023-12-14T03:27:08;102014.28;;;5.99;77.05
60371;BME280;48550;40.588;49.684;2023-12-14T03:29:33;102008.28;;;5.96;77.62
60371;BME280;48550;40.588;49.684;2023-12-14T03:32:00;102013.44;;;5.99;77.38
60371;BME280;48550;40.588;49.684;2023-12-14T03:34:26;102016.06;;;5.99;77.30
60371;BME280;48550;40.588;49.684;2023-12-14T03:36:51;102015.00;;;6.05;77.48
60371;BME280;48550;40.588;49.684;2023-12-14T03:39:17;102016.28;;;6.16;76.88
60371;BME280;48550;40.588;49.684;2023-12-14T03:41:43;102024.88;;;6.20;76.68
60371;BME280;48550;40.588;49.684;2023-12-14T03:44:09;102031.28;;;6.13;76.42
60371;BME280;48550;40.588;49.684;2023-12-14T03:46:35;102026.44;;;6.02;76.94
60371;BME280;48550;40.588;49.684;2023-12-14T03:49:01;102022.03;;;6.03;77.13
60371;BME280;48550;40.588;49.684;2023-12-14T03:51:27;102045.34;;;6.10;77.37
60371;BME280;48550;40.588;49.684;2023-12-14T03:53:53;102039.75;;;5.96;76.83
60371;BME280;48550;40.588;49.684;2023-12-14T03:56:19;102042.75;;;5.85;77.17
60371;BME280;48550;40.588;49.684;2023-12-14T03:58:45;102052.06;;;5.94;77.48
60371;BME280;48550;40.588;49.684;2023-12-14T04:01:20;102038.91;;;5.95;76.83
60371;BME280;48550;40.588;49.684;2023-12-14T04:03:47;102041.59;;;5.94;76.48
60371;BME280;48550;40.588;49.684;2023-12-14T04:06:13;102045.25;;;6.13;76.50
60371;BME280;48550;40.588;49.684;2023-12-14T04:08:40;102054.66;;;6.19;77.03
60371;BME280;48550;40.588;49.684;2023-12-14T04:11:06;102044.69;;;6.05;76.38
60371;BME280;48550;40.588;49.684;2023-12-14T04:13:33;102047.63;;;6.20;75.64
60371;BME280;48550;40.588;49.684;2023-12-14T04:15:59;102046.03;;;6.15;76.39
60371;BME280;48550;40.588;49.684;2023-12-14T04:18:25;102058.91;;;6.22;75.87
60371;BME280;48550;40.588;49.684;2023-12-14T04:20:50;102050.50;;;6.13;77.02
60371;BME280;48550;40.588;49.684;2023-12-14T04:23:16;102063.91;;;6.51;75.81
60371;BME280;48550;40.588;49.684;2023-12-14T04:25:42;102065.25;;;6.40;75.50
60371;BME280;48550;40.588;49.684;2023-12-14T04:28:08;102071.69;;;6.31;75.69
60371;BME280;48550;40.588;49.684;2023-12-14T04:30:34;102080.59;;;6.27;75.93
60371;BME280;48550;40.588;49.684;2023-12-14T04:32:59;102074.97;;;6.36;75.16
60371;BME280;48550;40.588;49.684;2023-12-14T04:35:25;102078.22;;;6.65;73.79
60371;BME280;48550;40.588;49.684;2023-12-14T04:37:51;102084.06;;;6.73;74.18
60371;BME280;48550;40.588;49.684;2023-12-14T04:40:17;102082.16;;;6.54;74.19
60371;BME280;48550;40.588;49.684;2023-12-14T04:42:42;102075.78;;;6.82;73.31
60371;BME280;48550;40.588;49.684;2023-12-14T04:45:08;102085.44;;;6.60;73.95
60371;BME280;48550;40.588;49.684;2023-12-14T04:47:35;102071.69;;;6.31;74.36
60371;BME280;48550;40.588;49.684;2023-12-14T04:50:02;102074.91;;;6.38;75.19
60371;BME280;48550;40.588;49.684;2023-12-14T04:52:28;102116.63;;;6.67;72.74
60371;BME280;48550;40.588;49.684;2023-12-14T04:54:53;102108.72;;;6.69;74.05
60371;BME280;48550;40.588;49.684;2023-12-14T04:57:19;102098.06;;;6.50;74.00
60371;BME280;48550;40.588;49.684;2023-12-14T04:59:45;102113.53;;;6.58;73.39
60371;BME280;48550;40.588;49.684;2023-12-14T05:02:11;102101.72;;;6.46;72.69
60371;BME280;48550;40.588;49.684;2023-12-14T05:04:36;102116.16;;;6.58;73.43
60371;BME280;48550;40.588;49.684;2023-12-14T05:07:02;102128.22;;;6.40;74.42
60371;BME280;48550;40.588;49.684;2023-12-14T05:09:28;102154.59;;;6.59;73.21
60371;BME280;48550;40.588;49.684;2023-12-14T05:11:54;102137.28;;;6.77;72.76
60371;BME280;48550;40.588;49.684;2023-12-14T05:14:19;102127.59;;;6.55;72.83
60371;BME280;48550;40.588;49.684;2023-12-14T05:16:45;102122.47;;;6.52;73.53
60371;BME280;48550;40.588;49.684;2023-12-14T05:19:11;102160.19;;;6.49;74.67
60371;BME280;48550;40.588;49.684;2023-12-14T05:21:38;102149.81;;;6.46;74.79
60371;BME280;48550;40.588;49.684;2023-12-14T05:24:04;102153.13;;;6.51;74.86
60371;BME280;48550;40.588;49.684;2023-12-14T05:26:30;102157.78;;;6.43;74.47
60371;BME280;48550;40.588;49.684;2023-12-14T05:28:56;102157.00;;;6.17;74.93
60371;BME280;48550;40.588;49.684;2023-12-14T05:31:22;102165.94;;;6.35;74.95
60371;BME280;48550;40.588;49.684;2023-12-14T05:33:47;102159.50;;;6.21;75.90
60371;BME280;48550;40.588;49.684;2023-12-14T05:36:13;102160.69;;;6.12;75.17
60371;BME280;48550;40.588;49.684;2023-12-14T05:38:40;102167.25;;;6.47;75.08
60371;BME280;48550;40.588;49.684;2023-12-14T05:41:06;102173.13;;;6.30;75.35
60371;BME280;48550;40.588;49.684;2023-12-14T05:43:32;102178.31;;;6.32;74.20
60371;BME280;48550;40.588;49.684;2023-12-14T05:45:58;102178.50;;;6.02;75.32
60371;BME280;48550;40.588;49.684;2023-12-14T05:48:23;102189.19;;;5.96;76.26
60371;BME280;48550;40.588;49.684;2023-12-14T05:50:51;102177.81;;;5.97;77.12
60371;BME280;48550;40.588;49.684;2023-12-14T05:53:17;102192.22;;;5.84;77.04
60371;BME280;48550;40.588;49.684;2023-12-14T05:55:43;102188.25;;;5.72;78.38
60371;BME280;48550;40.588;49.684;2023-12-14T05:58:08;102181.41;;;5.93;76.57
60371;BME280;48550;40.588;49.684;2023-12-14T06:00:35;102199.44;;;6.04;76.70
60371;BME280;48550;40.588;49.684;2023-12-14T06:03:01;102195.28;;;5.71;78.34
60371;BME280;48550;40.588;49.684;2023-12-14T06:05:28;102196.34;;;6.17;76.55
60371;BME280;48550;40.588;49.684;2023-12-14T06:07:54;102201.13;;;6.30;74.83
60371;BME280;48550;40.588;49.684;2023-12-14T06:10:20;102214.66;;;5.92;76.40
60371;BME280;48550;40.588;49.684;2023-12-14T06:12:47;102220.31;;;6.32;75.54
60371;BME280;48550;40.588;49.684;2023-12-14T06:15:12;102212.84;;;6.45;75.09
60371;BME280;48550;40.588;49.684;2023-12-14T06:17:38;102222.00;;;6.33;74.98
60371;BME280;48550;40.588;49.684;2023-12-14T06:20:06;102220.00;;;6.16;74.46
60371;BME280;48550;40.588;49.684;2023-12-14T06:22:38;102217.84;;;6.27;73.58
60371;BME280;48550;40.588;49.684;2023-12-14T06:25:05;102222.28;;;6.25;75.01
60371;BME280;48550;40.588;49.684;2023-12-14T06:27:30;102214.78;;;6.40;74.21
60371;BME280;48550;40.588;49.684;2023-12-14T06:29:56;102202.22;;;6.24;74.64
60371;BME280;48550;40.588;49.684;2023-12-14T06:32:22;102232.72;;;6.50;74.19
60371;BME280;48550;40.588;49.684;2023-12-14T06:34:48;102233.56;;;6.76;73.84
60371;BME280;48550;40.588;49.684;2023-12-14T06:37:14;102226.91;;;6.89;71.24
60371;BME280;48550;40.588;49.684;2023-12-14T06:39:42;102225.56;;;6.56;71.91
60371;BME280;48550;40.588;49.684;2023-12-14T06:42:08;102234.56;;;6.48;72.83
60371;BME280;48550;40.588;49.684;2023-12-14T06:44:34;102242.75;;;6.39;72.87
60371;BME280;48550;40.588;49.684;2023-12-14T06:47:00;102238.97;;;6.71;71.66
60371;BME280;48550;40.588;49.684;2023-12-14T06:49:26;102248.56;;;6.72;71.96
60371;BME280;48550;40.588;49.684;2023-12-14T06:51:52;102243.28;;;6.96;70.91
60371;BME280;48550;40.588;49.684;2023-12-14T06:54:18;102234.34;;;6.78;71.79
60371;BME280;48550;40.588;49.684;2023-12-14T06:56:44;102245.59;;;6.82;71.36
60371;BME280;48550;40.588;49.684;2023-12-14T06:59:10;102242.16;;;6.80;70.65
60371;BME280;48550;40.588;49.684;2023-12-14T07:01:36;102254.69;;;6.73;71.21
60371;BME280;48550;40.588;49.684;2023-12-14T07:04:01;102253.09;;;6.44;71.86
60371;BME280;48550;40.588;49.684;2023-12-14T07:06:30;102232.75;;;6.74;70.79
60371;BME280;48550;40.588;49.684;2023-12-14T07:08:56;102240.16;;;6.86;70.75
60371;BME280;48550;40.588;49.684;2023-12-14T07:11:21;102251.78;;;7.03;71.02
60371;BME280;48550;40.588;49.684;2023-12-14T07:13:47;102235.19;;;6.79;70.91
60371;BME280;48550;40.588;49.684;2023-12-14T07:16:13;102230.19;;;6.72;70.33
60371;BME280;48550;40.588;49.684;2023-12-14T07:18:41;102239.25;;;6.87;68.88
60371;BME280;48550;40.588;49.684;2023-12-14T07:21:08;102236.81;;;6.83;70.18
60371;BME280;48550;40.588;49.684;2023-12-14T07:23:35;102224.47;;;6.85;70.48
60371;BME280;48550;40.588;49.684;2023-12-14T07:26:01;102230.69;;;6.82;70.68
60371;BME280;48550;40.588;49.684;2023-12-14T07:28:27;102221.91;;;6.83;69.97
60371;BME280;48550;40.588;49.684;2023-12-14T07:30:53;102235.13;;;6.80;70.60
60371;BME280;48550;40.588;49.684;2023-12-14T07:33:19;102235.03;;;6.60;72.35
60371;BME280;48550;40.588;49.684;2023-12-14T07:35:44;102230.81;;;6.56;72.41
60371;BME280;48550;40.588;49.684;2023-12-14T07:38:10;102235.13;;;6.80;70.99
60371;BME280;48550;40.588;49.684;2023-12-14T07:40:37;102228.38;;;6.75;71.42
60371;BME280;48550;40.588;49.684;2023-12-14T07:43:04;102238.16;;;6.69;71.34
60371;BME280;48550;40.588;49.684;2023-12-14T07:45:30;102224.00;;;6.97;70.29
60371;BME280;48550;40.588;49.684;2023-12-14T07:47:55;102225.31;;;6.85;71.06
60371;BME280;48550;40.588;49.684;2023-12-14T07:50:21;102216.72;;;6.58;71.49
60371;BME280;48550;40.588;49.684;2023-12-14T07:52:47;102238.03;;;6.49;72.23
60371;BME280;48550;40.588;49.684;2023-12-14T07:55:13;102225.34;;;6.62;70.91
60371;BME280;48550;40.588;49.684;2023-12-14T07:57:42;102217.97;;;6.48;71.64
60371;BME280;48550;40.588;49.684;2023-12-14T08:00:09;102210.84;;;6.51;71.52
60371;BME280;48550;40.588;49.684;2023-12-14T08:02:35;102215.03;;;6.57;70.39
60371;BME280;48550;40.588;49.684;2023-12-14T08:05:01;102208.72;;;6.38;71.93
60371;BME280;48550;40.588;49.684;2023-12-14T08:07:27;102217.22;;;6.68;71.94
60371;BME280;48550;40.588;49.684;2023-12-14T08:09:57;102208.97;;;6.30;73.00
60371;BME280;48550;40.588;49.684;2023-12-14T08:12:23;102192.25;;;6.34;72.71
60371;BME280;48550;40.588;49.684;2023-12-14T08:14:50;102210.28;;;6.43;73.23
60371;BME280;48550;40.588;49.684;2023-12-14T08:17:16;102211.16;;;6.42;71.83
60371;BME280;48550;40.588;49.684;2023-12-14T08:19:42;102210.38;;;6.64;71.19
60371;BME280;48550;40.588;49.684;2023-12-14T08:22:08;102214.13;;;6.57;71.66
60371;BME280;48550;40.588;49.684;2023-12-14T08:24:39;102212.72;;;6.95;71.47
60371;BME280;48550;40.588;49.684;2023-12-14T08:27:05;102203.69;;;6.79;72.30
60371;BME280;48550;40.588;49.684;2023-12-14T08:29:31;102210.84;;;6.51;73.16
60371;BME280;48550;40.588;49.684;2023-12-14T08:31:57;102209.13;;;6.50;73.12
60371;BME280;48550;40.588;49.684;2023-12-14T08:34:27;102204.03;;;6.46;73.75
60371;BME280;48550;40.588;49.684;2023-12-14T08:36:53;102207.31;;;6.52;73.33
60371;BME280;48550;40.588;49.684;2023-12-14T08:39:19;102201.63;;;6.41;74.86
60371;BME280;48550;40.588;49.684;2023-12-14T08:41:46;102197.84;;;6.48;73.64
60371;BME280;48550;40.588;49.684;2023-12-14T08:44:13;102196.81;;;6.52;72.88
60371;BME280;48550;40.588;49.684;2023-12-14T08:46:41;102200.91;;;6.60;73.20
60371;BME280;48550;40.588;49.684;2023-12-14T08:49:07;102195.09;;;6.51;73.57
60371;BME280;48550;40.588;49.684;2023-12-14T08:51:33;102200.97;;;6.58;73.74
60371;BME280;48550;40.588;49.684;2023-12-14T08:53:59;102200.63;;;6.67;73.17
60371;BME280;48550;40.588;49.684;2023-12-14T08:56:24;102193.72;;;6.65;73.76
60371;BME280;48550;40.588;49.684;2023-12-14T08:58:50;102198.63;;;6.50;74.08
60371;BME280;48550;40.588;49.684;2023-12-14T09:01:20;102195.38;;;6.44;74.20
60371;BME280;48550;40.588;49.684;2023-12-14T09:03:49;102181.75;;;6.34;74.55
60371;BME280;48550;40.588;49.684;2023-12-14T09:06:18;102180.25;;;6.50;74.46
60371;BME280;48550;40.588;49.684;2023-12-14T09:08:44;102188.88;;;6.54;73.54
60371;BME280;48550;40.588;49.684;2023-12-14T09:11:10;102188.19;;;6.49;74.20
60371;BME280;48550;40.588;49.684;2023-12-14T09:13:36;102195.84;;;6.55;73.60
60371;BME280;48550;40.588;49.684;2023-12-14T09:16:02;102179.00;;;6.61;73.67
60371;BME280;48550;40.588;49.684;2023-12-14T09:18:28;102182.75;;;6.53;73.98
60371;BME280;48550;40.588;49.684;2023-12-14T09:20:53;102175.09;;;6.71;74.54
60371;BME280;48550;40.588;49.684;2023-12-14T09:23:19;102169.56;;;6.79;74.73
60371;BME280;48550;40.588;49.684;2023-12-14T09:25:45;102171.50;;;6.97;73.41
60371;BME280;48550;40.588;49.684;2023-12-14T09:28:11;102179.53;;;6.93;73.11
60371;BME280;48550;40.588;49.684;2023-12-14T09:30:37;102177.69;;;6.95;72.61
60371;BME280;48550;40.588;49.684;2023-12-14T09:33:03;102173.56;;;6.89;72.73
60371;BME280;48550;40.588;49.684;2023-12-14T09:35:28;102172.34;;;6.98;72.73
60371;BME280;48550;40.588;49.684;2023-12-14T09:37:55;102170.88;;;6.90;73.04
60371;BME280;48550;40.588;49.684;2023-12-14T09:40:22;102170.25;;;6.84;72.96
60371;BME280;48550;40.588;49.684;2023-12-14T09:42:48;102163.78;;;6.93;73.01
60371;BME280;48550;40.588;49.684;2023-12-14T09:45:16;102155.94;;;6.69;72.97
60371;BME280;48550;40.588;49.684;2023-12-14T09:47:42;102164.91;;;6.63;73.20
60371;BME280;48550;40.588;49.684;2023-12-14T09:50:10;102159.75;;;6.62;72.70
60371;BME280;48550;40.588;49.684;2023-12-14T09:52:35;102159.38;;;6.71;73.34
60371;BME280;48550;40.588;49.684;2023-12-14T09:55:01;102166.22;;;6.75;73.80
60371;BME280;48550;40.588;49.684;2023-12-14T09:57:29;102158.28;;;6.77;73.46
60371;BME280;48550;40.588;49.684;2023-12-14T09:59:55;102173.06;;;6.79;73.50
60371;BME280;48550;40.588;49.684;2023-12-14T10:02:26;102164.00;;;6.64;73.76
60371;BME280;48550;40.588;49.684;2023-12-14T10:04:52;102163.16;;;6.64;73.61
60371;BME280;48550;40.588;49.684;2023-12-14T10:07:19;102158.22;;;6.78;74.19
60371;BME280;48550;40.588;49.684;2023-12-14T10:09:45;102168.50;;;6.61;73.79
60371;BME280;48550;40.588;49.684;2023-12-14T10:12:11;102167.63;;;6.62;73.89
60371;BME280;48550;40.588;49.684;2023-12-14T10:14:37;102167.06;;;6.52;74.54
60371;BME280;48550;40.588;49.684;2023-12-14T10:17:21;102164.34;;;6.55;73.69
60371;BME280;48550;40.588;49.684;2023-12-14T10:19:48;102175.00;;;6.50;74.21
60371;BME280;48550;40.588;49.684;2023-12-14T10:22:15;102166.34;;;6.48;74.53
60371;BME280;48550;40.588;49.684;2023-12-14T10:24:47;102167.03;;;6.53;74.82
60371;BME280;48550;40.588;49.684;2023-12-14T10:27:14;102171.41;;;6.53;74.84
60371;BME280;48550;40.588;49.684;2023-12-14T10:29:41;102181.88;;;6.54;74.73
60371;BME280;48550;40.588;49.684;2023-12-14T10:32:10;102178.63;;;6.71;75.23
60371;BME280;48550;40.588;49.684;2023-12-14T10:34:37;102178.06;;;6.85;73.82
60371;BME280;48550;40.588;49.684;2023-12-14T10:37:06;102170.31;;;7.04;73.27
60371;BME280;48550;40.588;49.684;2023-12-14T10:39:34;102166.47;;;6.91;73.26
60371;BME280;48550;40.588;49.684;2023-12-14T10:42:04;102170.63;;;6.75;74.05
60371;BME280;48550;40.588;49.684;2023-12-14T10:44:36;102178.31;;;6.79;73.61
60371;BME280;48550;40.588;49.684;2023-12-14T10:47:02;102173.63;;;6.87;72.82
60371;BME280;48550;40.588;49.684;2023-12-14T10:49:31;102179.91;;;6.83;74.19
60371;BME280;48550;40.588;49.684;2023-12-14T10:52:00;102181.69;;;6.83;74.49
60371;BME280;48550;40.588;49.684;2023-12-14T10:54:28;102181.28;;;6.70;75.31
60371;BME280;48550;40.588;49.684;2023-12-14T10:56:57;102184.53;;;6.77;75.68
60371;BME280;48550;40.588;49.684;2023-12-14T10:59:24;102182.56;;;6.82;74.40
60371;BME280;48550;40.588;49.684;2023-12-14T11:01:54;102192.88;;;6.64;74.98
60371;BME280;48550;40.588;49.684;2023-12-14T11:04:23;102188.47;;;6.65;75.50
60371;BME280;48550;40.588;49.684;2023-12-14T11:06:49;102193.38;;;6.74;75.41
60371;BME280;48550;40.588;49.684;2023-12-14T11:09:18;102186.09;;;6.81;75.84
60371;BME280;48550;40.588;49.684;2023-12-14T11:14:19;102195.66;;;6.60;75.46
60371;BME280;48550;40.588;49.684;2023-12-14T11:16:47;102190.81;;;6.49;75.99
60371;BME280;48550;40.588;49.684;2023-12-14T11:19:33;102190.41;;;6.60;76.56
60371;BME280;48550;40.588;49.684;2023-12-14T11:24:31;102197.59;;;6.54;76.61
60371;BME280;48550;40.588;49.684;2023-12-14T11:26:57;102204.22;;;6.41;76.26
60371;BME280;48550;40.588;49.684;2023-12-14T11:29:22;102210.06;;;6.49;78.98
60371;BME280;48550;40.588;49.684;2023-12-14T11:31:48;102197.94;;;6.45;76.72
60371;BME280;48550;40.588;49.684;2023-12-14T11:34:17;102204.91;;;6.46;77.22
60371;BME280;48550;40.588;49.684;2023-12-14T11:36:43;102213.13;;;6.61;77.36
60371;BME280;48550;40.588;49.684;2023-12-14T11:39:11;102208.09;;;6.78;77.19
60371;BME280;48550;40.588;49.684;2023-12-14T11:41:36;102213.56;;;6.96;75.43
60371;BME280;48550;40.588;49.684;2023-12-14T11:44:04;102218.78;;;7.19;76.05
60371;BME280;48550;40.588;49.684;2023-12-14T11:46:30;102222.72;;;7.30;74.80
60371;BME280;48550;40.588;49.684;2023-12-14T11:48:57;102224.53;;;6.83;75.21
60371;BME280;48550;40.588;49.684;2023-12-14T11:51:24;102222.19;;;6.76;76.37
60371;BME280;48550;40.588;49.684;2023-12-14T11:53:54;102231.91;;;6.74;76.83
60371;BME280;48550;40.588;49.684;2023-12-14T11:56:20;102218.81;;;6.48;75.43
60371;BME280;48550;40.588;49.684;2023-12-14T11:58:48;102234.41;;;6.53;75.68
60371;BME280;48550;40.588;49.684;2023-12-14T12:01:15;102237.19;;;6.48;75.93
60371;BME280;48550;40.588;49.684;2023-12-14T12:03:42;102248.47;;;6.50;76.67
60371;BME280;48550;40.588;49.684;2023-12-14T12:06:23;102247.47;;;6.54;77.44
60371;BME280;48550;40.588;49.684;2023-12-14T12:08:49;102253.56;;;6.79;77.01
60371;BME280;48550;40.588;49.684;2023-12-14T12:11:19;102259.56;;;6.59;76.37
60371;BME280;48550;40.588;49.684;2023-12-14T12:13:56;102265.31;;;6.45;75.36
60371;BME280;48550;40.588;49.684;2023-12-14T12:16:23;102259.44;;;6.38;76.11
60371;BME280;48550;40.588;49.684;2023-12-14T12:18:49;102266.94;;;6.47;76.66
60371;BME280;48550;40.588;49.684;2023-12-14T12:21:18;102271.13;;;6.53;77.57
60371;BME280;48550;40.588;49.684;2023-12-14T12:23:43;102264.81;;;6.59;76.38
60371;BME280;48550;40.588;49.684;2023-12-14T12:26:09;102277.44;;;6.47;76.50
60371;BME280;48550;40.588;49.684;2023-12-14T12:28:35;102280.75;;;6.29;77.22
60371;BME280;48550;40.588;49.684;2023-12-14T12:31:01;102280.94;;;6.23;78.50
60371;BME280;48550;40.588;49.684;2023-12-14T12:33:26;102285.06;;;6.30;79.53
60371;BME280;48550;40.588;49.684;2023-12-14T12:35:53;102281.06;;;6.20;80.04
60371;BME280;48550;40.588;49.684;2023-12-14T12:38:20;102285.53;;;5.89;81.82
60371;BME280;48550;40.588;49.684;2023-12-14T12:40:45;102291.63;;;5.90;82.90
60371;BME280;48550;40.588;49.684;2023-12-14T12:43:13;102284.78;;;5.86;82.32
60371;BME280;48550;40.588;49.684;2023-12-14T12:45:39;102290.72;;;5.91;81.77
60371;BME280;48550;40.588;49.684;2023-12-14T12:48:05;102278.28;;;5.97;81.76
60371;BME280;48550;40.588;49.684;2023-12-14T12:50:32;102285.66;;;6.13;80.19